Time;durP1;ratioP1;P1;durP2;ratioP2;P2;SDS_P1;SDS_P2;PMS_P1;PMS_P2;Temp;Humidity;BMP_temperature;BMP_pressure;BME280_temperature;BME280_humidity;BME280_pressure;Samples;Min_cycle;Max_cycle;Signal;HPM_P1;HPM_P2
2021/06/22 00:00:15;;;;;;;8.85;6.15;;;;;;;;;;2049356;28;20262;-48
2021/06/22 00:01:18;;;;;;;9.35;6.50;;;;;;;;;;2050061;28;20233;-52
2021/06/22 00:02:18;;;;;;;9.48;6.47;;;;;;;;;;2057785;28;20654;-48
2021/06/22 00:03:19;;;;;;;10.00;6.18;;;;;;;;;;2057333;28;20229;-51
2021/06/22 00:04:19;;;;;;;11.77;6.18;;;;;;;;;;2052102;28;20183;-51
2021/06/22 00:05:20;;;;;;;12.65;6.60;;;;;;;;;;2051527;28;20177;-50
2021/06/22 00:06:20;;;;;;;8.65;6.70;;;;;;;;;;2052945;28;20336;-51
2021/06/22 00:07:20;;;;;;;13.93;6.65;;;;;;;;;;2047877;28;20523;-51
2021/06/22 00:08:21;;;;;;;11.00;6.55;;;;;;;;;;2052145;28;20716;-49
2021/06/22 00:09:21;;;;;;;12.02;6.72;;;;;;;;;;2045555;28;20655;-51
2021/06/22 00:10:23;;;;;;;9.73;6.30;;;;;;;;;;2059709;28;20290;-48
2021/06/22 00:11:24;;;;;;;14.38;6.90;;;;;;;;;;2041951;28;20660;-49
2021/06/22 00:12:24;;;;;;;12.80;6.70;;;;;;;;;;2051167;28;20230;-49
2021/06/22 00:13:24;;;;;;;10.50;6.55;;;;;;;;;;2050128;28;20553;-50
2021/06/22 00:14:24;;;;;;;15.68;6.75;;;;;;;;;;2055689;28;20208;-49
2021/06/22 00:15:26;;;;;;;7.50;6.22;;;;;;;;;;2050557;28;20175;-49
2021/06/22 00:16:26;;;;;;;8.07;6.13;;;;;;;;;;2050304;28;20175;-54
2021/06/22 00:17:26;;;;;;;10.52;6.35;;;;;;;;;;2050082;28;20523;-49
2021/06/22 00:18:27;;;;;;;12.93;7.45;;;;;;;;;;2050352;28;20197;-49
2021/06/22 00:19:27;;;;;;;13.68;7.53;;;;;;;;;;2050528;28;20175;-51
2021/06/22 00:20:27;;;;;;;11.38;7.15;;;;;;;;;;2050888;28;20222;-51
2021/06/22 00:21:27;;;;;;;11.65;6.95;;;;;;;;;;2055392;28;20302;-49
2021/06/22 00:22:28;;;;;;;11.07;6.78;;;;;;;;;;2061122;28;20205;-50
2021/06/22 00:23:28;;;;;;;12.30;6.85;;;;;;;;;;2064783;28;20178;-52
2021/06/22 00:24:28;;;;;;;11.70;6.72;;;;;;;;;;2063749;28;20178;-53
2021/06/22 00:25:28;;;;;;;13.68;7.57;;;;;;;;;;2052491;28;20743;-50
2021/06/22 00:26:29;;;;;;;13.20;6.88;;;;;;;;;;2055890;28;20182;-50
2021/06/22 00:27:29;;;;;;;13.57;7.00;;;;;;;;;;2050779;28;20186;-51
2021/06/22 00:28:29;;;;;;;13.20;6.30;;;;;;;;;;2057586;28;20178;-47
2021/06/22 00:29:30;;;;;;;7.38;6.22;;;;;;;;;;2062096;28;20285;-50
2021/06/22 00:30:30;;;;;;;10.40;6.05;;;;;;;;;;2052574;28;20202;-49
2021/06/22 00:31:31;;;;;;;14.80;7.03;;;;;;;;;;2064332;28;20178;-49
2021/06/22 00:32:31;;;;;;;9.23;6.30;;;;;;;;;;2063792;28;20193;-50
2021/06/22 00:33:32;;;;;;;10.13;7.22;;;;;;;;;;2057770;28;20309;-49
2021/06/22 00:34:32;;;;;;;12.55;7.03;;;;;;;;;;2057787;28;20209;-49
2021/06/22 00:35:33;;;;;;;15.73;7.15;;;;;;;;;;2050355;28;20242;-52
2021/06/22 00:36:33;;;;;;;12.60;7.28;;;;;;;;;;2050859;28;20179;-54
2021/06/22 00:37:33;;;;;;;10.43;6.35;;;;;;;;;;2051355;28;20203;-52
2021/06/22 00:38:34;;;;;;;12.23;6.30;;;;;;;;;;2051280;28;20598;-53
2021/06/22 00:39:34;;;;;;;12.70;6.57;;;;;;;;;;2050060;28;20222;-50
2021/06/22 00:40:34;;;;;;;12.10;6.43;;;;;;;;;;2057658;28;20722;-49
2021/06/22 00:41:35;;;;;;;12.25;6.47;;;;;;;;;;2057485;28;20331;-47
2021/06/22 00:42:35;;;;;;;8.05;6.22;;;;;;;;;;2050024;29;20171;-54
2021/06/22 00:43:36;;;;;;;10.38;6.72;;;;;;;;;;2043711;28;20645;-51
2021/06/22 00:44:46;;;;;;;12.40;6.95;;;;;;;;;;2051442;29;20175;-50
2021/06/22 00:45:46;;;;;;;10.85;6.78;;;;;;;;;;2051870;28;20182;-51
2021/06/22 00:46:47;;;;;;;13.30;7.10;;;;;;;;;;2057352;28;20201;-52
2021/06/22 00:47:47;;;;;;;8.80;6.78;;;;;;;;;;2053309;28;20695;-51
2021/06/22 00:48:48;;;;;;;10.48;6.60;;;;;;;;;;2051969;28;20250;-50
2021/06/22 00:49:49;;;;;;;9.48;6.82;;;;;;;;;;2049561;28;20177;-53
2021/06/22 00:50:50;;;;;;;10.63;6.65;;;;;;;;;;2057951;28;20265;-52
2021/06/22 00:51:50;;;;;;;10.82;6.32;;;;;;;;;;2055496;28;21296;-50
2021/06/22 00:52:51;;;;;;;10.63;7.38;;;;;;;;;;2051097;28;20218;-49
2021/06/22 00:53:53;;;;;;;8.52;6.65;;;;;;;;;;2044548;29;20307;-54
2021/06/22 00:54:55;;;;;;;14.43;6.88;;;;;;;;;;2042989;28;20197;-55
2021/06/22 00:55:56;;;;;;;13.20;7.05;;;;;;;;;;2053649;28;20183;-49
2021/06/22 00:57:07;;;;;;;9.90;6.72;;;;;;;;;;2060623;28;20268;-48
2021/06/22 00:58:08;;;;;;;13.18;7.05;;;;;;;;;;2057427;28;20198;-49
2021/06/22 00:59:09;;;;;;;13.35;6.95;;;;;;;;;;2049113;28;20180;-50
2021/06/22 01:00:10;;;;;;;9.75;6.75;;;;;;;;;;2062801;28;20197;-52
2021/06/22 01:01:15;;;;;;;10.43;6.88;;;;;;;;;;2060750;28;20252;-50
2021/06/22 01:02:17;;;;;;;11.40;6.70;;;;;;;;;;2059774;28;20182;-57
2021/06/22 01:03:17;;;;;;;11.18;6.68;;;;;;;;;;2054318;28;20181;-52
2021/06/22 01:04:19;;;;;;;12.00;6.90;;;;;;;;;;2051028;28;20175;-52
2021/06/22 01:05:32;;;;;;;10.27;6.70;;;;;;;;;;2055778;28;20242;-48
2021/06/22 01:06:34;;;;;;;15.27;7.63;;;;;;;;;;2050917;28;20214;-48
2021/06/22 01:07:41;;;;;;;10.75;7.03;;;;;;;;;;2066704;28;20252;-50
2021/06/22 01:08:43;;;;;;;8.85;7.10;;;;;;;;;;2055078;28;20195;-52
2021/06/22 01:09:44;;;;;;;8.38;6.82;;;;;;;;;;2058490;28;20187;-49
2021/06/22 01:10:44;;;;;;;13.70;6.40;;;;;;;;;;2059670;28;20197;-54
2021/06/22 01:11:46;;;;;;;15.98;7.20;;;;;;;;;;2056595;28;20214;-50
2021/06/22 01:12:48;;;;;;;12.27;7.22;;;;;;;;;;2063289;28;20186;-51
2021/06/22 01:13:49;;;;;;;9.82;7.15;;;;;;;;;;2056817;28;20240;-55
2021/06/22 01:14:49;;;;;;;10.73;6.75;;;;;;;;;;2044525;28;20211;-52
2021/06/22 01:15:50;;;;;;;10.20;6.68;;;;;;;;;;2035699;29;20183;-51
2021/06/22 01:16:51;;;;;;;13.23;6.55;;;;;;;;;;2039531;29;20738;-52
2021/06/22 01:17:53;;;;;;;10.55;6.75;;;;;;;;;;2057938;28;20186;-52
2021/06/22 01:19:00;;;;;;;11.63;7.32;;;;;;;;;;2052823;28;20183;-53
2021/06/22 01:20:07;;;;;;;11.13;6.95;;;;;;;;;;2056138;28;20242;-51
2021/06/22 01:21:13;;;;;;;9.20;6.65;;;;;;;;;;2062998;28;20198;-49
2021/06/22 01:22:19;;;;;;;14.63;7.13;;;;;;;;;;2059726;28;20166;-52
2021/06/22 01:23:19;;;;;;;16.60;7.65;;;;;;;;;;2063230;28;20178;-49
2021/06/22 01:24:21;;;;;;;13.27;7.55;;;;;;;;;;2061058;28;20590;-53
2021/06/22 01:25:24;;;;;;;10.60;6.82;;;;;;;;;;2060439;28;20288;-50
2021/06/22 01:26:24;;;;;;;8.15;6.40;;;;;;;;;;2058045;28;20244;-51
2021/06/22 01:27:25;;;;;;;8.23;6.68;;;;;;;;;;2051438;28;20172;-50
2021/06/22 01:28:27;;;;;;;16.17;7.43;;;;;;;;;;2057632;28;20198;-54
2021/06/22 01:29:34;;;;;;;12.10;7.55;;;;;;;;;;2060273;28;20193;-50
2021/06/22 01:30:36;;;;;;;11.05;7.22;;;;;;;;;;2063557;28;20270;-51
2021/06/22 01:31:38;;;;;;;14.07;7.30;;;;;;;;;;2059309;28;20175;-48
2021/06/22 01:32:39;;;;;;;10.27;7.22;;;;;;;;;;2051796;28;20659;-52
2021/06/22 01:33:44;;;;;;;14.98;7.28;;;;;;;;;;2066547;28;20192;-54
2021/06/22 01:34:44;;;;;;;13.80;7.30;;;;;;;;;;2050583;28;20621;-53
2021/06/22 01:35:46;;;;;;;11.23;7.20;;;;;;;;;;2046467;28;20195;-49
2021/06/22 01:36:46;;;;;;;13.38;8.18;;;;;;;;;;2053653;28;20674;-57
2021/06/22 01:37:51;;;;;;;14.63;7.25;;;;;;;;;;2053707;28;20171;-47
2021/06/22 01:38:53;;;;;;;11.63;7.68;;;;;;;;;;2051716;28;20191;-48
2021/06/22 01:39:55;;;;;;;10.82;7.40;;;;;;;;;;2062776;28;20682;-47
2021/06/22 01:40:57;;;;;;;11.13;7.32;;;;;;;;;;2050262;28;20178;-50
2021/06/22 01:41:57;;;;;;;10.07;6.47;;;;;;;;;;2048903;28;20221;-49
2021/06/22 01:42:59;;;;;;;11.48;7.10;;;;;;;;;;2057785;28;20553;-47
2021/06/22 01:43:59;;;;;;;8.48;6.90;;;;;;;;;;2055605;28;20670;-50
2021/06/22 01:45:00;;;;;;;13.05;6.72;;;;;;;;;;2048299;28;20211;-55
2021/06/22 01:46:01;;;;;;;10.02;6.28;;;;;;;;;;2047413;28;20187;-49
2021/06/22 01:47:01;;;;;;;8.30;6.45;;;;;;;;;;2054829;28;20179;-49
2021/06/22 01:48:03;;;;;;;14.45;8.05;;;;;;;;;;2055885;28;20175;-48
2021/06/22 01:49:07;;;;;;;11.43;7.50;;;;;;;;;;2049225;28;20182;-49
2021/06/22 01:50:12;;;;;;;13.13;7.30;;;;;;;;;;2045178;29;20171;-52
2021/06/22 01:51:13;;;;;;;14.18;7.32;;;;;;;;;;2040687;29;20223;-53
2021/06/22 01:52:15;;;;;;;12.98;6.97;;;;;;;;;;2053292;28;20174;-52
2021/06/22 01:53:16;;;;;;;9.77;7.30;;;;;;;;;;2057651;28;20174;-50
2021/06/22 01:54:16;;;;;;;12.82;7.30;;;;;;;;;;2054135;28;20214;-49
2021/06/22 01:56:37;;;;;;;9.07;7.15;;;;;;;;;;2055941;28;20150;-49
2021/06/22 01:57:38;;;;;;;11.48;7.28;;;;;;;;;;2049179;28;20262;-50
2021/06/22 01:58:59;;;;;;;11.88;7.65;;;;;;;;;;2052839;28;20174;-51
2021/06/22 02:00:26;;;;;;;10.40;6.68;;;;;;;;;;2039404;28;20267;-50
2021/06/22 02:01:26;;;;;;;14.18;8.30;;;;;;;;;;2055829;28;20669;-52
2021/06/22 02:02:37;;;;;;;13.43;7.47;;;;;;;;;;2049825;28;20331;-47
2021/06/22 02:03:44;;;;;;;10.93;7.47;;;;;;;;;;2050275;28;20191;-54
2021/06/22 02:04:46;;;;;;;12.27;7.10;;;;;;;;;;2065880;28;20217;-52
2021/06/22 02:05:48;;;;;;;10.02;6.90;;;;;;;;;;2049530;29;20183;-52
2021/06/22 02:06:49;;;;;;;10.88;6.95;;;;;;;;;;2047587;28;20179;-51
2021/06/22 02:08:18;;;;;;;15.30;8.02;;;;;;;;;;2054333;28;20202;-53
2021/06/22 02:09:19;;;;;;;9.43;6.70;;;;;;;;;;2058412;28;20245;-55
2021/06/22 02:10:20;;;;;;;10.30;7.00;;;;;;;;;;2065707;28;20330;-49
2021/06/22 02:11:41;;;;;;;11.18;8.30;;;;;;;;;;2061338;28;20277;-53
2021/06/22 02:12:42;;;;;;;14.00;8.48;;;;;;;;;;2060996;28;20725;-52
2021/06/22 02:13:43;;;;;;;12.60;8.23;;;;;;;;;;2065000;28;20177;-50
2021/06/22 02:14:50;;;;;;;9.27;8.40;;;;;;;;;;2057173;28;20190;-48
2021/06/22 02:15:52;;;;;;;13.23;7.68;;;;;;;;;;2049097;28;20179;-51
2021/06/22 02:16:52;;;;;;;12.00;7.93;;;;;;;;;;2054387;28;20203;-50
2021/06/22 02:17:54;;;;;;;11.68;8.23;;;;;;;;;;2064315;28;20177;-51
2021/06/22 02:18:54;;;;;;;11.80;9.02;;;;;;;;;;2059103;28;20212;-52
2021/06/22 02:19:57;;;;;;;14.20;8.73;;;;;;;;;;2065386;28;20299;-53
2021/06/22 02:21:07;;;;;;;13.20;7.93;;;;;;;;;;2064164;28;20165;-51
2021/06/22 02:22:07;;;;;;;15.88;8.98;;;;;;;;;;2052189;28;20182;-48
2021/06/22 02:23:20;;;;;;;13.93;9.23;;;;;;;;;;2055436;28;20655;-48
2021/06/22 02:24:24;;;;;;;13.10;8.88;;;;;;;;;;2060870;28;20563;-49
2021/06/22 02:25:25;;;;;;;13.15;9.43;;;;;;;;;;2058757;28;20186;-51
2021/06/22 02:26:25;;;;;;;12.77;8.95;;;;;;;;;;2051252;28;20170;-48
2021/06/22 02:27:26;;;;;;;13.43;9.23;;;;;;;;;;2050478;28;20175;-51
2021/06/22 02:28:29;;;;;;;17.17;9.55;;;;;;;;;;2063482;28;20232;-49
2021/06/22 02:29:30;;;;;;;15.15;9.40;;;;;;;;;;2049097;29;20195;-50
2021/06/22 02:30:31;;;;;;;13.32;8.20;;;;;;;;;;2055586;28;20178;-50
2021/06/22 02:31:32;;;;;;;14.20;8.82;;;;;;;;;;2057852;28;20638;-52
2021/06/22 02:32:33;;;;;;;15.13;8.73;;;;;;;;;;2055799;28;20178;-51
2021/06/22 02:33:38;;;;;;;17.80;9.82;;;;;;;;;;2045857;29;20183;-49
2021/06/22 02:34:41;;;;;;;14.00;9.40;;;;;;;;;;2049343;28;20632;-52
2021/06/22 02:35:42;;;;;;;11.13;8.60;;;;;;;;;;2059030;28;20273;-48
2021/06/22 02:36:44;;;;;;;11.98;9.63;;;;;;;;;;2049591;28;20186;-52
2021/06/22 02:37:52;;;;;;;17.02;9.48;;;;;;;;;;2056647;28;20170;-49
2021/06/22 02:38:53;;;;;;;12.25;8.77;;;;;;;;;;2062974;28;20185;-51
2021/06/22 02:39:53;;;;;;;12.57;8.75;;;;;;;;;;2051978;28;20210;-49
2021/06/22 02:40:53;;;;;;;13.77;9.10;;;;;;;;;;2057909;28;20186;-48
2021/06/22 02:42:03;;;;;;;15.32;8.95;;;;;;;;;;2049809;28;20175;-57
2021/06/22 02:43:04;;;;;;;16.33;9.63;;;;;;;;;;2042399;28;20221;-50
2021/06/22 02:44:06;;;;;;;10.50;7.47;;;;;;;;;;2043919;29;20171;-51
2021/06/22 02:45:13;;;;;;;11.82;8.73;;;;;;;;;;2051646;28;20181;-49
2021/06/22 02:46:14;;;;;;;15.50;9.00;;;;;;;;;;2062417;28;20165;-49
2021/06/22 02:47:15;;;;;;;12.73;8.85;;;;;;;;;;2065317;28;20192;-51
2021/06/22 02:48:16;;;;;;;14.35;8.35;;;;;;;;;;2054700;28;20245;-48
2021/06/22 02:49:18;;;;;;;10.77;8.10;;;;;;;;;;2061839;28;20662;-50
2021/06/22 02:50:20;;;;;;;13.35;7.70;;;;;;;;;;2062886;28;20249;-52
2021/06/22 02:51:20;;;;;;;15.15;8.65;;;;;;;;;;2063230;28;20182;-51
2021/06/22 02:52:21;;;;;;;11.20;7.72;;;;;;;;;;2060926;28;20190;-52
2021/06/22 02:53:23;;;;;;;13.95;7.40;;;;;;;;;;2052460;29;20169;-50
2021/06/22 02:54:24;;;;;;;12.00;7.55;;;;;;;;;;2049665;28;20178;-52
2021/06/22 02:55:24;;;;;;;9.38;7.30;;;;;;;;;;2052942;28;20173;-50
2021/06/22 02:56:41;;;;;;;11.82;8.43;;;;;;;;;;2056611;28;20181;-49
2021/06/22 02:57:50;;;;;;;10.35;7.22;;;;;;;;;;2055893;28;20183;-50
2021/06/22 02:58:51;;;;;;;15.07;7.85;;;;;;;;;;2052368;28;20230;-49
2021/06/22 02:59:54;;;;;;;11.52;7.47;;;;;;;;;;2062515;28;20632;-49
2021/06/22 03:00:55;;;;;;;11.02;8.07;;;;;;;;;;2056201;28;20171;-48
2021/06/22 03:01:56;;;;;;;12.68;8.07;;;;;;;;;;2051353;29;20194;-54
2021/06/22 03:02:57;;;;;;;16.02;8.35;;;;;;;;;;2053917;28;20186;-48
2021/06/22 03:03:58;;;;;;;11.68;7.93;;;;;;;;;;2065922;28;20170;-51
2021/06/22 03:04:59;;;;;;;11.70;8.57;;;;;;;;;;2059606;28;20258;-48
2021/06/22 03:06:00;;;;;;;14.98;8.27;;;;;;;;;;2062414;28;20174;-49
2021/06/22 03:07:08;;;;;;;11.30;8.25;;;;;;;;;;2056546;28;20177;-51
2021/06/22 03:08:09;;;;;;;10.63;7.85;;;;;;;;;;2054276;28;20205;-49
2021/06/22 03:09:12;;;;;;;11.70;8.82;;;;;;;;;;2047016;28;20168;-49
2021/06/22 03:10:19;;;;;;;11.68;8.48;;;;;;;;;;2044052;29;20179;-50
2021/06/22 03:11:19;;;;;;;16.63;7.90;;;;;;;;;;2058370;28;20715;-49
2021/06/22 03:12:22;;;;;;;12.70;8.05;;;;;;;;;;2048475;28;20187;-51
2021/06/22 03:13:45;;;;;;;11.85;8.23;;;;;;;;;;2049766;28;20185;-52
2021/06/22 03:14:56;;;;;;;13.20;9.02;;;;;;;;;;2063407;28;20170;-49
2021/06/22 03:16:04;;;;;;;15.13;10.75;;;;;;;;;;2061275;28;20186;-48
2021/06/22 03:17:07;;;;;;;14.93;9.02;;;;;;;;;;2061957;28;20163;-49
2021/06/22 03:18:11;;;;;;;12.20;8.43;;;;;;;;;;2057672;28;20817;-52
2021/06/22 03:19:17;;;;;;;13.20;8.38;;;;;;;;;;2056617;28;20174;-51
2021/06/22 03:20:23;;;;;;;10.55;7.72;;;;;;;;;;2059248;28;20212;-49
2021/06/22 03:21:24;;;;;;;10.15;8.25;;;;;;;;;;2059410;28;20650;-50
2021/06/22 03:22:24;;;;;;;11.73;7.55;;;;;;;;;;2061829;28;20825;-48
2021/06/22 03:23:24;;;;;;;15.88;8.27;;;;;;;;;;2049487;28;20179;-49
2021/06/22 03:24:27;;;;;;;15.93;8.52;;;;;;;;;;2055300;28;20673;-50
2021/06/22 03:25:27;;;;;;;10.05;7.80;;;;;;;;;;2056842;28;20190;-51
2021/06/22 03:26:35;;;;;;;9.77;7.07;;;;;;;;;;2062839;28;20166;-48
2021/06/22 03:27:35;;;;;;;11.32;7.43;;;;;;;;;;2054743;28;20191;-49
2021/06/22 03:28:58;;;;;;;10.05;7.53;;;;;;;;;;2045152;28;20183;-48
2021/06/22 03:30:22;;;;;;;9.13;7.50;;;;;;;;;;2059965;28;20185;-50
2021/06/22 03:31:22;;;;;;;13.05;8.45;;;;;;;;;;2059796;28;20192;-48
2021/06/22 03:32:23;;;;;;;18.05;8.88;;;;;;;;;;2061575;28;20559;-49
2021/06/22 03:33:23;;;;;;;12.43;8.75;;;;;;;;;;2059017;28;20249;-51
2021/06/22 03:34:23;;;;;;;10.20;7.78;;;;;;;;;;2063016;28;20194;-47
2021/06/22 03:35:26;;;;;;;11.60;8.00;;;;;;;;;;2056932;28;20182;-50
2021/06/22 03:36:27;;;;;;;14.07;8.50;;;;;;;;;;2061494;28;20224;-48
2021/06/22 03:37:28;;;;;;;14.70;8.00;;;;;;;;;;2045988;28;20188;-50
2021/06/22 03:38:28;;;;;;;13.38;8.68;;;;;;;;;;2041561;29;20191;-52
2021/06/22 03:39:29;;;;;;;10.63;7.32;;;;;;;;;;2061243;28;20173;-51
2021/06/22 03:40:29;;;;;;;11.13;7.47;;;;;;;;;;2051816;28;20184;-49
2021/06/22 03:41:31;;;;;;;11.18;8.10;;;;;;;;;;2055861;28;20562;-50
2021/06/22 03:42:32;;;;;;;12.38;7.47;;;;;;;;;;2063975;28;20606;-48
2021/06/22 03:43:32;;;;;;;12.18;7.65;;;;;;;;;;2061645;28;20205;-51
2021/06/22 03:44:33;;;;;;;10.32;7.88;;;;;;;;;;2053707;28;20179;-50
2021/06/22 03:45:36;;;;;;;10.07;7.40;;;;;;;;;;2056428;28;20175;-53
2021/06/22 03:46:36;;;;;;;17.50;8.95;;;;;;;;;;2051645;28;20191;-49
2021/06/22 03:47:38;;;;;;;10.45;7.75;;;;;;;;;;2055282;28;20202;-49
2021/06/22 03:48:38;;;;;;;12.55;8.10;;;;;;;;;;2056978;28;20201;-49
2021/06/22 03:49:38;;;;;;;11.73;8.13;;;;;;;;;;2056372;28;20202;-49
2021/06/22 03:50:42;;;;;;;11.85;8.05;;;;;;;;;;2049993;28;20566;-50
2021/06/22 03:51:43;;;;;;;11.05;7.70;;;;;;;;;;2051418;28;20178;-49
2021/06/22 03:52:44;;;;;;;11.55;7.82;;;;;;;;;;2064985;28;20200;-51
2021/06/22 03:53:51;;;;;;;12.52;8.27;;;;;;;;;;2057619;28;20179;-50
2021/06/22 03:54:52;;;;;;;10.38;7.68;;;;;;;;;;2063327;28;20176;-49
2021/06/22 03:55:52;;;;;;;10.05;7.18;;;;;;;;;;2057642;28;20186;-49
2021/06/22 03:57:02;;;;;;;12.50;7.43;;;;;;;;;;2056809;28;20653;-50
2021/06/22 03:59:25;;;;;;;12.15;7.25;;;;;;;;;;2054196;28;20679;-56
2021/06/22 04:00:26;;;;;;;13.38;7.95;;;;;;;;;;2047370;28;20167;-57
2021/06/22 04:01:33;;;;;;;14.45;7.78;;;;;;;;;;2053977;28;20181;-53
2021/06/22 04:02:33;;;;;;;12.95;7.85;;;;;;;;;;2053201;28;20261;-54
2021/06/22 04:03:33;;;;;;;12.23;8.05;;;;;;;;;;2050620;28;20178;-54
2021/06/22 04:04:54;;;;;;;10.38;8.10;;;;;;;;;;2020354;29;20233;-58
2021/06/22 04:06:11;;;;;;;13.65;7.75;;;;;;;;;;2052494;28;20166;-54
2021/06/22 04:07:12;;;;;;;11.52;7.47;;;;;;;;;;2053535;28;20770;-57
2021/06/22 04:08:13;;;;;;;11.57;7.00;;;;;;;;;;2054003;28;20642;-55
2021/06/22 04:09:14;;;;;;;11.70;7.70;;;;;;;;;;2061858;28;20218;-56
2021/06/22 04:10:21;;;;;;;12.88;7.72;;;;;;;;;;2055111;28;20261;-56
2021/06/22 04:11:28;;;;;;;12.25;8.18;;;;;;;;;;2040972;29;20183;-54
2021/06/22 04:12:31;;;;;;;11.48;7.95;;;;;;;;;;2047853;28;20183;-54
2021/06/22 04:13:32;;;;;;;12.23;6.93;;;;;;;;;;2047311;28;20230;-54
2021/06/22 04:14:33;;;;;;;9.05;6.93;;;;;;;;;;2048804;28;20238;-58
2021/06/22 04:15:33;;;;;;;13.48;8.02;;;;;;;;;;2052787;28;20515;-56
2021/06/22 04:16:34;;;;;;;11.70;7.50;;;;;;;;;;2055932;28;20643;-55
2021/06/22 04:17:36;;;;;;;10.35;7.05;;;;;;;;;;2048301;28;20175;-57
2021/06/22 04:18:36;;;;;;;11.52;7.63;;;;;;;;;;2063613;28;20625;-53
2021/06/22 04:19:41;;;;;;;9.18;7.20;;;;;;;;;;2056201;28;20206;-54
2021/06/22 04:20:41;;;;;;;12.63;7.25;;;;;;;;;;2048087;29;20199;-56
2021/06/22 04:21:45;;;;;;;13.38;7.40;;;;;;;;;;2044329;28;20289;-55
2021/06/22 04:23:14;;;;;;;11.57;6.90;;;;;;;;;;2052311;28;20669;-57
2021/06/22 04:24:15;;;;;;;11.80;7.05;;;;;;;;;;2050676;28;20171;-56
2021/06/22 04:25:16;;;;;;;10.90;6.75;;;;;;;;;;2050156;28;20193;-55
2021/06/22 04:26:17;;;;;;;11.93;6.75;;;;;;;;;;2052504;28;20202;-55
2021/06/22 04:27:17;;;;;;;11.38;7.13;;;;;;;;;;2049814;28;20234;-57
2021/06/22 04:28:18;;;;;;;13.30;7.32;;;;;;;;;;2049373;28;20562;-55
2021/06/22 04:29:18;;;;;;;12.65;6.53;;;;;;;;;;2053621;28;20171;-55
2021/06/22 04:30:19;;;;;;;10.13;7.03;;;;;;;;;;2056139;28;20553;-55
2021/06/22 04:31:19;;;;;;;10.15;7.05;;;;;;;;;;2055396;28;20209;-53
2021/06/22 04:32:19;;;;;;;8.35;6.32;;;;;;;;;;2055649;28;20162;-53
2021/06/22 04:33:19;;;;;;;9.15;6.65;;;;;;;;;;2059720;28;20189;-57
2021/06/22 04:34:20;;;;;;;13.57;6.72;;;;;;;;;;2061084;28;20197;-57
2021/06/22 04:35:20;;;;;;;11.55;7.05;;;;;;;;;;2052660;28;20163;-56
2021/06/22 04:36:20;;;;;;;12.80;6.95;;;;;;;;;;2054294;28;20182;-58
2021/06/22 04:37:21;;;;;;;11.10;6.93;;;;;;;;;;2054149;28;20178;-57
2021/06/22 04:38:21;;;;;;;12.93;7.45;;;;;;;;;;2054071;28;20261;-57
2021/06/22 04:39:21;;;;;;;7.57;6.57;;;;;;;;;;2054099;28;20265;-56
2021/06/22 04:40:22;;;;;;;10.25;7.40;;;;;;;;;;2051874;28;20193;-50
2021/06/22 04:41:22;;;;;;;14.30;6.93;;;;;;;;;;2053153;28;20551;-56
2021/06/22 04:42:22;;;;;;;11.38;7.03;;;;;;;;;;2051180;28;20694;-55
2021/06/22 04:43:23;;;;;;;8.75;6.55;;;;;;;;;;2047260;28;20183;-56
2021/06/22 04:44:23;;;;;;;10.57;6.50;;;;;;;;;;2049409;28;20167;-54
2021/06/22 04:45:24;;;;;;;9.75;6.80;;;;;;;;;;2054607;28;20253;-55
2021/06/22 04:46:24;;;;;;;16.73;7.55;;;;;;;;;;2050294;28;20395;-53
2021/06/22 04:47:24;;;;;;;14.23;6.72;;;;;;;;;;2050603;28;20169;-56
2021/06/22 04:48:24;;;;;;;7.90;6.72;;;;;;;;;;2046241;28;20205;-55
2021/06/22 04:49:25;;;;;;;12.25;6.78;;;;;;;;;;2047343;28;20178;-56
2021/06/22 04:50:25;;;;;;;11.13;6.75;;;;;;;;;;2047251;28;20183;-56
2021/06/22 04:51:25;;;;;;;11.65;6.43;;;;;;;;;;2049702;28;20230;-57
2021/06/22 04:52:26;;;;;;;7.93;6.60;;;;;;;;;;2051038;28;20194;-54
2021/06/22 04:53:26;;;;;;;10.77;6.25;;;;;;;;;;2048985;28;20179;-54
2021/06/22 04:54:26;;;;;;;13.35;6.32;;;;;;;;;;2063762;28;20634;-57
2021/06/22 04:55:27;;;;;;;10.90;6.97;;;;;;;;;;2070192;28;20191;-54
2021/06/22 04:56:27;;;;;;;12.93;7.25;;;;;;;;;;2056356;28;20652;-57
2021/06/22 04:57:27;;;;;;;13.95;7.15;;;;;;;;;;2054745;28;20213;-55
2021/06/22 04:58:28;;;;;;;10.15;6.22;;;;;;;;;;2050507;28;20211;-57
2021/06/22 04:59:31;;;;;;;7.07;6.38;;;;;;;;;;2054704;28;20170;-57
2021/06/22 05:00:31;;;;;;;9.57;6.47;;;;;;;;;;2050400;28;20171;-57
2021/06/22 05:01:31;;;;;;;10.38;6.68;;;;;;;;;;2054827;28;20209;-55
2021/06/22 05:02:32;;;;;;;6.85;6.10;;;;;;;;;;2050997;28;20171;-59
2021/06/22 05:03:34;;;;;;;11.23;6.80;;;;;;;;;;2056230;28;20258;-57
2021/06/22 05:04:34;;;;;;;13.15;7.35;;;;;;;;;;2049473;28;20191;-55
2021/06/22 05:05:34;;;;;;;13.23;7.20;;;;;;;;;;2055139;28;20178;-57
2021/06/22 05:06:35;;;;;;;9.50;6.70;;;;;;;;;;2049124;28;20183;-55
2021/06/22 05:07:35;;;;;;;13.52;6.60;;;;;;;;;;2050831;28;20171;-55
2021/06/22 05:08:35;;;;;;;9.95;6.30;;;;;;;;;;2052053;28;20200;-56
2021/06/22 05:09:35;;;;;;;13.82;6.70;;;;;;;;;;2052913;28;20174;-56
2021/06/22 05:10:36;;;;;;;12.40;6.43;;;;;;;;;;2062535;28;20670;-63
2021/06/22 05:11:37;;;;;;;9.27;6.40;;;;;;;;;;2057680;28;20681;-57
2021/06/22 05:12:39;;;;;;;7.82;6.28;;;;;;;;;;2052716;28;20183;-55
2021/06/22 05:13:40;;;;;;;15.38;7.30;;;;;;;;;;2056482;28;20670;-57
2021/06/22 05:14:40;;;;;;;11.20;7.18;;;;;;;;;;2046333;28;20187;-59
2021/06/22 05:15:41;;;;;;;11.85;6.68;;;;;;;;;;2055943;28;20170;-58
2021/06/22 05:16:41;;;;;;;10.20;6.85;;;;;;;;;;2045795;28;20271;-55
2021/06/22 05:17:41;;;;;;;12.95;9.23;;;;;;;;;;2071915;28;20208;-57
2021/06/22 05:18:42;;;;;;;14.88;7.50;;;;;;;;;;2064705;28;20197;-57
2021/06/22 05:19:42;;;;;;;11.45;6.50;;;;;;;;;;2051348;28;20219;-57
2021/06/22 05:20:42;;;;;;;13.25;6.45;;;;;;;;;;2048815;28;20182;-57
2021/06/22 05:21:43;;;;;;;18.05;7.47;;;;;;;;;;2047845;28;20253;-56
2021/06/22 05:22:43;;;;;;;11.25;6.47;;;;;;;;;;2048077;28;20202;-54
2021/06/22 05:23:43;;;;;;;12.27;6.53;;;;;;;;;;2043794;28;20171;-58
2021/06/22 05:24:44;;;;;;;10.38;8.63;;;;;;;;;;2048792;28;20623;-55
2021/06/22 05:25:44;;;;;;;9.88;7.82;;;;;;;;;;2042672;28;20576;-55
2021/06/22 05:26:44;;;;;;;8.52;6.60;;;;;;;;;;2041201;28;20232;-54
2021/06/22 05:27:45;;;;;;;10.02;7.32;;;;;;;;;;2049579;28;20273;-58
2021/06/22 05:28:45;;;;;;;7.10;6.05;;;;;;;;;;2056682;28;20210;-58
2021/06/22 05:29:45;;;;;;;12.15;7.05;;;;;;;;;;2048288;28;20191;-57
2021/06/22 05:30:45;;;;;;;11.85;6.85;;;;;;;;;;2050899;28;20179;-58
2021/06/22 05:31:46;;;;;;;9.82;6.57;;;;;;;;;;2047717;28;20178;-60
2021/06/22 05:32:46;;;;;;;7.82;6.07;;;;;;;;;;2070088;28;20173;-56
2021/06/22 05:33:46;;;;;;;9.15;5.50;;;;;;;;;;2071556;28;20745;-59
2021/06/22 05:34:46;;;;;;;10.27;6.13;;;;;;;;;;2048655;28;20186;-57
2021/06/22 05:35:47;;;;;;;6.95;5.38;;;;;;;;;;2056180;28;20190;-62
2021/06/22 05:36:47;;;;;;;8.40;6.88;;;;;;;;;;2048271;28;20214;-62
2021/06/22 05:37:47;;;;;;;9.70;6.40;;;;;;;;;;2050926;28;20183;-61
2021/06/22 05:38:47;;;;;;;9.13;5.97;;;;;;;;;;2051828;28;20194;-60
2021/06/22 05:39:48;;;;;;;9.85;6.95;;;;;;;;;;2055626;28;20902;-60
2021/06/22 05:40:48;;;;;;;9.05;6.13;;;;;;;;;;2048757;28;20214;-60
2021/06/22 05:41:48;;;;;;;11.10;6.97;;;;;;;;;;2055671;28;20182;-61
2021/06/22 05:42:49;;;;;;;14.38;10.82;;;;;;;;;;2047450;28;20243;-59
2021/06/22 05:43:49;;;;;;;11.68;6.47;;;;;;;;;;2064137;28;20757;-61
2021/06/22 05:44:49;;;;;;;8.82;5.47;;;;;;;;;;2052909;28;20630;-60
2021/06/22 05:45:49;;;;;;;13.50;9.85;;;;;;;;;;2055265;28;20174;-62
2021/06/22 05:46:50;;;;;;;10.13;5.53;;;;;;;;;;2048879;28;20187;-62
2021/06/22 05:47:50;;;;;;;11.45;6.85;;;;;;;;;;2055261;28;20213;-62
2021/06/22 05:48:50;;;;;;;12.55;5.35;;;;;;;;;;2049016;28;20203;-61
2021/06/22 05:49:51;;;;;;;6.50;5.28;;;;;;;;;;2055745;28;20654;-62
2021/06/22 05:50:51;;;;;;;8.35;5.60;;;;;;;;;;2048292;28;20303;-62
2021/06/22 05:51:53;;;;;;;10.07;5.50;;;;;;;;;;2047683;28;20183;-62
2021/06/22 05:52:54;;;;;;;12.10;5.40;;;;;;;;;;2066756;28;20166;-61
2021/06/22 05:53:54;;;;;;;9.55;5.47;;;;;;;;;;2065385;28;20210;-61
2021/06/22 05:54:54;;;;;;;10.77;5.35;;;;;;;;;;2046461;28;20183;-61
2021/06/22 05:55:55;;;;;;;10.60;5.15;;;;;;;;;;2044136;28;20186;-59
2021/06/22 05:56:55;;;;;;;8.13;4.97;;;;;;;;;;2045980;28;20541;-52
2021/06/22 05:57:56;;;;;;;10.85;5.03;;;;;;;;;;2049644;28;20277;-55
2021/06/22 05:58:56;;;;;;;7.82;4.97;;;;;;;;;;2049661;28;20222;-59
2021/06/22 05:59:56;;;;;;;9.00;4.93;;;;;;;;;;2052432;28;20263;-60
2021/06/22 06:00:57;;;;;;;12.10;5.40;;;;;;;;;;2046289;28;20214;-56
2021/06/22 06:01:57;;;;;;;8.88;4.63;;;;;;;;;;2048316;28;20179;-61
2021/06/22 06:02:57;;;;;;;8.60;4.57;;;;;;;;;;2047822;28;20178;-56
2021/06/22 06:03:57;;;;;;;8.55;5.22;;;;;;;;;;2048159;28;20213;-58
2021/06/22 06:04:58;;;;;;;8.02;4.80;;;;;;;;;;2048105;28;20182;-57
2021/06/22 06:06:00;;;;;;;12.70;6.22;;;;;;;;;;2048918;28;20181;-59
2021/06/22 06:07:00;;;;;;;8.18;4.88;;;;;;;;;;2050402;28;20234;-59
2021/06/22 06:08:00;;;;;;;7.55;4.25;;;;;;;;;;2050969;28;20159;-58
2021/06/22 06:09:01;;;;;;;11.48;7.00;;;;;;;;;;2048121;28;20199;-59
2021/06/22 06:10:02;;;;;;;10.23;5.15;;;;;;;;;;2064832;28;20178;-57
2021/06/22 06:11:03;;;;;;;12.68;6.75;;;;;;;;;;2064233;28;20680;-57